createdAt,value
2018-01-12T00:01:00.869Z,18.12
2018-01-12T00:03:28.482Z,17.02
2018-01-12T00:05:56.079Z,17.25
2018-01-12T00:08:23.698Z,17.10
2018-01-12T00:10:51.275Z,19.33
2018-01-12T00:13:18.949Z,18.75
2018-01-12T00:15:46.563Z,18.15
2018-01-12T00:18:14.921Z,19.90
2018-01-12T00:20:42.534Z,18.50
2018-01-12T00:23:10.215Z,16.77
2018-01-12T00:25:37.797Z,17.80
2018-01-12T00:28:06.174Z,16.67
2018-01-12T00:30:33.789Z,17.65
2018-01-12T00:33:01.354Z,17.37
2018-01-12T00:35:28.969Z,16.62
2018-01-12T00:37:57.349Z,16.65
2018-01-12T00:40:25.705Z,16.20
2018-01-12T00:42:53.289Z,15.77
2018-01-12T00:45:21.668Z,17.17
2018-01-12T00:47:50.031Z,15.52
2018-01-12T00:50:17.596Z,16.83
2018-01-12T00:52:45.962Z,16.30
2018-01-12T00:55:13.552Z,16.77
2018-01-12T00:57:41.124Z,16.75
2018-01-12T01:00:08.755Z,16.85
2018-01-12T01:02:37.101Z,16.92
2018-01-12T01:05:04.686Z,15.27
2018-01-12T01:07:33.011Z,15.32
2018-01-12T01:10:00.744Z,14.60
2018-01-12T01:12:28.432Z,17.08
2018-01-12T01:14:56.551Z,16.90
2018-01-12T01:17:24.882Z,17.85
2018-01-12T01:19:52.478Z,18.45
2018-01-12T01:22:20.050Z,16.08
2018-01-12T01:24:48.487Z,17.08
2018-01-12T01:27:16.054Z,17.30
2018-01-12T01:29:43.635Z,16.98
2018-01-12T01:32:11.230Z,16.87
2018-01-12T01:34:38.809Z,18.23
2018-01-12T01:37:06.419Z,18.52
2018-01-12T01:39:34.027Z,17.87
2018-01-12T01:42:01.575Z,17.50
2018-01-12T01:44:29.174Z,17.90
2018-01-12T01:46:56.779Z,17.08
2018-01-12T01:49:24.361Z,17.20
2018-01-12T01:51:51.974Z,16.10
2018-01-12T01:54:20.566Z,17.23
2018-01-12T01:56:48.950Z,15.00
2018-01-12T01:59:17.418Z,15.65
2018-01-12T02:01:45.942Z,16.15
2018-01-12T02:04:13.556Z,15.85
2018-01-12T02:06:41.891Z,17.45
2018-01-12T02:09:09.482Z,18.12
2018-01-12T02:11:37.096Z,17.98
2018-01-12T02:14:04.726Z,16.98
2018-01-12T02:16:33.187Z,17.02
2018-01-12T02:19:00.823Z,18.40
2018-01-12T02:21:28.435Z,18.37
2018-01-12T02:23:56.671Z,18.95
2018-01-12T02:26:24.288Z,18.15
2018-01-12T02:28:51.850Z,19.75
2018-01-12T02:31:19.415Z,18.33
2018-01-12T02:33:47.018Z,17.30
2018-01-12T02:36:15.395Z,19.15
2018-01-12T02:38:43.763Z,17.33
2018-01-12T02:41:11.350Z,18.30
2018-01-12T02:43:38.923Z,17.67
2018-01-12T02:46:06.519Z,20.07
2018-01-12T02:48:34.187Z,17.37
2018-01-12T02:51:01.799Z,18.30
2018-01-12T02:53:29.406Z,17.27
2018-01-12T02:55:57.014Z,18.77
2018-01-12T02:58:24.578Z,18.45
2018-01-12T03:00:52.207Z,20.30
2018-01-12T03:03:20.623Z,18.77
2018-01-12T03:05:48.238Z,18.00
2018-01-12T03:08:15.842Z,17.48
2018-01-12T03:10:43.410Z,17.83
2018-01-12T03:13:11.074Z,18.87
2018-01-12T03:15:38.676Z,18.30
2018-01-12T03:18:06.251Z,19.85
2018-01-12T03:20:34.780Z,18.93
2018-01-12T03:23:02.354Z,18.23
2018-01-12T03:25:29.910Z,18.42
2018-01-12T03:27:57.550Z,18.30
2018-01-12T03:30:25.131Z,19.27
2018-01-12T03:32:52.786Z,19.83
2018-01-12T03:35:20.374Z,18.80
2018-01-12T03:37:48.702Z,18.80
2018-01-12T03:40:17.121Z,19.67
2018-01-12T03:42:44.690Z,19.73
2018-01-12T03:45:13.034Z,17.70
2018-01-12T03:47:40.630Z,19.30
2018-01-12T03:50:08.969Z,18.60
2018-01-12T03:52:37.254Z,19.23
2018-01-12T03:55:04.835Z,17.55
2018-01-12T03:57:33.203Z,16.80
2018-01-12T04:00:00.780Z,19.27
2018-01-12T04:02:29.761Z,19.10
2018-01-12T04:04:57.363Z,19.90
2018-01-12T04:07:25.658Z,19.13
2018-01-12T04:09:53.219Z,18.65
2018-01-12T04:12:20.814Z,18.90
2018-01-12T04:14:49.210Z,18.83
2018-01-12T04:17:16.823Z,18.52
2018-01-12T04:19:44.390Z,19.07
2018-01-12T04:22:12.050Z,19.83
2018-01-12T04:24:39.662Z,21.12
2018-01-12T04:27:07.230Z,20.25
2018-01-12T04:29:34.846Z,18.05
2018-01-12T04:32:02.411Z,20.50
2018-01-12T04:34:30.743Z,19.70
2018-01-12T04:36:58.354Z,21.03
2018-01-12T04:39:26.721Z,20.10
2018-01-12T04:41:55.065Z,17.75
2018-01-12T04:44:22.778Z,20.83
2018-01-12T04:46:50.347Z,20.90
2018-01-12T04:49:17.915Z,19.35
2018-01-12T04:51:45.522Z,19.73
2018-01-12T04:54:13.094Z,21.70
2018-01-12T04:56:40.670Z,20.80
2018-01-12T04:59:08.395Z,21.30
2018-01-12T05:01:36.684Z,19.23
2018-01-12T05:04:04.288Z,18.50
2018-01-12T05:06:31.867Z,20.90
2018-01-12T05:08:59.482Z,21.15
2018-01-12T05:11:27.852Z,19.55
2018-01-12T05:13:56.183Z,20.95
2018-01-12T05:16:23.788Z,20.25
2018-01-12T05:18:52.127Z,21.87
2018-01-12T05:21:19.828Z,20.48
2018-01-12T05:23:48.195Z,20.92
2018-01-12T05:26:16.584Z,23.23
2018-01-12T05:28:44.950Z,21.77
2018-01-12T05:31:12.510Z,20.55
2018-01-12T05:33:41.066Z,21.25
2018-01-12T05:36:08.718Z,18.80
2018-01-12T05:38:36.278Z,17.75
2018-01-12T05:41:03.895Z,19.27
2018-01-12T05:43:31.466Z,18.25
2018-01-12T05:45:59.082Z,17.08
2018-01-12T05:48:26.642Z,17.15
2018-01-12T05:50:54.971Z,19.87
2018-01-12T05:53:22.567Z,14.90
2018-01-12T05:55:50.199Z,13.65
2018-01-12T05:58:17.951Z,14.95
2018-01-12T06:00:57.375Z,13.52
2018-01-12T06:03:36.923Z,8.48
2018-01-12T06:06:20.974Z,10.93
2018-01-12T06:08:48.587Z,8.90
2018-01-12T06:11:16.910Z,5.55
2018-01-12T06:13:44.559Z,9.50
2018-01-12T06:16:12.146Z,10.00
2018-01-12T06:18:39.746Z,11.65
2018-01-12T06:21:08.125Z,12.50
2018-01-12T06:23:36.469Z,8.35
2018-01-12T06:26:04.159Z,9.10
2018-01-12T06:28:32.576Z,11.70
2018-01-12T06:31:00.146Z,12.32
2018-01-12T06:33:27.742Z,10.68
2018-01-12T06:35:55.417Z,11.30
2018-01-12T06:38:23.947Z,10.05
2018-01-12T06:40:51.646Z,10.30
2018-01-12T06:43:19.226Z,10.80
2018-01-12T06:45:47.614Z,11.43
2018-01-12T06:48:15.183Z,11.82
2018-01-12T06:50:42.870Z,11.90
2018-01-12T06:53:10.468Z,10.18
2018-01-12T06:55:38.874Z,11.85
2018-01-12T06:58:06.480Z,10.32
2018-01-12T07:00:34.039Z,9.85
2018-01-12T07:03:01.756Z,11.75
2018-01-12T07:05:29.363Z,9.55
2018-01-12T07:07:56.958Z,10.18
2018-01-12T07:10:25.479Z,10.50
2018-01-12T07:12:53.050Z,10.50
2018-01-12T07:15:20.618Z,10.68
2018-01-12T07:17:48.219Z,9.57
2018-01-12T07:20:28.460Z,10.23
2018-01-12T07:23:08.763Z,11.55
2018-01-12T07:25:36.921Z,9.73
2018-01-12T07:28:04.518Z,9.18
2018-01-12T07:30:32.079Z,10.27
2018-01-12T07:32:59.674Z,10.25
2018-01-12T07:35:28.042Z,10.45
2018-01-12T07:37:56.374Z,10.43
2018-01-12T07:40:23.987Z,11.50
2018-01-12T07:42:52.323Z,10.15
2018-01-12T07:45:19.987Z,10.43
2018-01-12T07:47:47.820Z,10.25
2018-01-12T07:50:16.144Z,10.80
2018-01-12T07:52:50.130Z,9.10
2018-01-12T07:55:17.823Z,9.13
2018-01-12T07:57:46.185Z,9.95
2018-01-12T08:00:13.922Z,9.75
2018-01-12T08:02:47.220Z,9.98
2018-01-12T08:05:15.154Z,8.55
2018-01-12T08:07:42.902Z,8.18
2018-01-12T08:10:11.367Z,9.68
2018-01-12T08:12:40.032Z,10.30
2018-01-12T08:15:07.667Z,10.35
2018-01-12T08:17:35.252Z,10.77
2018-01-12T08:20:02.846Z,10.45
2018-01-12T08:22:30.438Z,11.10
2018-01-12T08:24:58.011Z,10.63
2018-01-12T08:27:25.631Z,10.70
2018-01-12T08:29:53.200Z,10.18
2018-01-12T08:32:20.766Z,9.32
2018-01-12T08:34:48.386Z,10.43
2018-01-12T08:37:16.786Z,10.57
2018-01-12T08:39:44.357Z,11.40
2018-01-12T08:42:11.951Z,11.15
2018-01-12T08:44:39.522Z,11.02
2018-01-12T08:47:07.110Z,6.35
2018-01-12T08:49:34.732Z,10.82
2018-01-12T08:52:02.290Z,9.27
2018-01-12T08:54:29.866Z,8.80
2018-01-12T08:56:58.934Z,9.45
2018-01-12T08:59:26.618Z,10.55
2018-01-12T09:01:54.998Z,10.85
2018-01-12T09:04:23.458Z,10.00
2018-01-12T09:06:51.026Z,7.25
2018-01-12T09:09:18.635Z,7.07
2018-01-12T09:11:46.202Z,6.50
2018-01-12T09:14:25.881Z,6.60
2018-01-12T09:16:53.441Z,10.27
2018-01-12T09:19:36.335Z,11.38
2018-01-12T09:22:09.764Z,8.73
2018-01-12T09:24:46.010Z,9.73
2018-01-12T09:27:14.330Z,9.13
2018-01-12T09:29:41.893Z,9.67
2018-01-12T09:32:15.666Z,9.60
2018-01-12T09:35:04.987Z,8.57
2018-01-12T09:37:40.420Z,7.50
2018-01-12T09:40:24.403Z,8.35
2018-01-12T09:42:52.103Z,8.95
2018-01-12T09:45:19.714Z,7.70
2018-01-12T09:47:57.255Z,12.07
2018-01-12T09:50:25.585Z,8.40
2018-01-12T09:52:53.190Z,8.43
2018-01-12T09:55:20.755Z,5.00
2018-01-12T09:57:48.406Z,10.80
2018-01-12T10:00:27.638Z,11.02
2018-01-12T10:02:56.005Z,8.57
2018-01-12T10:05:24.379Z,7.75
2018-01-12T10:08:09.549Z,9.52
2018-01-12T10:10:37.921Z,8.00
2018-01-12T10:13:06.280Z,8.95
2018-01-12T10:15:33.886Z,10.13
2018-01-12T10:18:01.458Z,5.78
2018-01-12T10:20:29.783Z,6.40
2018-01-12T10:22:57.358Z,8.95
2018-01-12T10:25:25.745Z,8.75
2018-01-12T10:27:54.107Z,9.90
2018-01-12T10:33:17.865Z,8.30
2018-01-12T10:35:55.443Z,9.40
2018-01-12T10:38:23.014Z,9.87
2018-01-12T10:41:15.286Z,9.70
2018-01-12T10:43:43.624Z,10.07
2018-01-12T10:46:28.910Z,9.33
2018-01-12T10:48:56.471Z,8.00
2018-01-12T10:51:35.854Z,10.03
2018-01-12T10:54:04.274Z,8.80
2018-01-12T10:56:31.841Z,8.33
2018-01-12T10:58:59.418Z,8.87
2018-01-12T11:01:27.128Z,8.80
2018-01-12T11:03:54.683Z,9.43
2018-01-12T11:06:22.274Z,9.00
2018-01-12T11:08:49.904Z,10.03
2018-01-12T11:11:17.499Z,9.13
2018-01-12T11:13:45.094Z,9.57
2018-01-12T11:16:13.428Z,9.73
2018-01-12T11:18:41.170Z,8.90
2018-01-12T11:21:08.735Z,9.00
2018-01-12T11:23:36.431Z,9.30
2018-01-12T11:26:03.998Z,9.57
2018-01-12T11:28:32.341Z,9.70
2018-01-12T11:30:59.949Z,9.10
2018-01-12T11:33:28.280Z,10.50
2018-01-12T11:35:55.890Z,10.23
2018-01-12T11:38:23.458Z,10.30
2018-01-12T11:40:51.151Z,10.00
2018-01-12T11:43:18.762Z,9.60
2018-01-12T11:45:47.097Z,9.53
2018-01-12T11:48:14.803Z,8.27
2018-01-12T11:50:43.261Z,8.85
2018-01-12T11:53:10.983Z,12.03
2018-01-12T11:55:38.789Z,10.17
2018-01-12T11:58:06.350Z,9.67
2018-01-12T12:00:33.936Z,8.93
2018-01-12T12:03:01.594Z,9.97
2018-01-12T12:05:29.195Z,10.57
2018-01-12T12:07:56.794Z,9.50
2018-01-12T12:10:25.154Z,8.80
2018-01-12T12:12:52.750Z,8.47
2018-01-12T12:15:20.356Z,9.73
2018-01-12T12:17:47.931Z,10.23
2018-01-12T12:20:15.539Z,7.80
2018-01-12T12:22:43.111Z,8.60
2018-01-12T12:25:10.751Z,8.43
2018-01-12T12:27:38.419Z,10.27
2018-01-12T12:30:06.010Z,10.67
2018-01-12T12:32:33.683Z,9.95
2018-01-12T12:35:01.262Z,10.52
2018-01-12T12:37:29.622Z,11.20
2018-01-12T12:39:57.341Z,11.35
2018-01-12T12:42:24.915Z,10.77
2018-01-12T12:44:52.471Z,9.83
2018-01-12T12:47:20.076Z,10.53
2018-01-12T12:49:47.690Z,9.33
2018-01-12T12:52:15.284Z,8.97
2018-01-12T12:54:42.859Z,11.20
2018-01-12T12:57:11.262Z,10.20
2018-01-12T12:59:38.834Z,10.07
2018-01-12T13:02:06.414Z,11.30
2018-01-12T13:04:34.103Z,9.13
2018-01-12T13:07:01.666Z,9.90
2018-01-12T13:09:30.032Z,10.85
2018-01-12T13:11:57.678Z,11.70
2018-01-12T13:14:25.254Z,11.60
2018-01-12T13:16:52.882Z,11.70
2018-01-12T13:19:20.558Z,11.15
2018-01-12T13:21:48.154Z,12.18
2018-01-12T13:24:16.506Z,12.77
2018-01-12T13:26:44.074Z,11.10
2018-01-12T13:29:12.443Z,12.25
2018-01-12T13:31:40.014Z,11.60
2018-01-12T13:34:08.402Z,11.23
2018-01-12T13:36:36.750Z,11.33
2018-01-12T13:39:04.334Z,11.57
2018-01-12T13:41:32.713Z,10.40
2018-01-12T13:44:01.053Z,11.00
2018-01-12T13:46:28.654Z,11.48
2018-01-12T13:48:56.240Z,12.13
2018-01-12T13:51:23.869Z,12.27
2018-01-12T13:53:52.222Z,11.20
2018-01-12T13:56:19.783Z,10.50
2018-01-12T13:58:47.966Z,10.95
2018-01-12T14:01:16.306Z,10.93
2018-01-12T14:03:43.898Z,10.52
2018-01-12T14:06:11.490Z,11.35
2018-01-12T14:08:39.089Z,11.70
2018-01-12T14:11:06.686Z,8.93
2018-01-12T14:13:35.014Z,9.10
2018-01-12T14:16:03.838Z,10.70
2018-01-12T14:18:31.510Z,10.70
2018-01-12T14:20:59.845Z,10.38
2018-01-12T14:23:27.470Z,12.60
2018-01-12T14:25:55.043Z,11.07
2018-01-12T14:28:22.618Z,9.73
2018-01-12T14:30:50.226Z,10.50
2018-01-12T14:33:18.638Z,10.23
2018-01-12T14:35:46.261Z,10.75
2018-01-12T14:38:14.712Z,10.37
2018-01-12T14:40:42.324Z,10.95
2018-01-12T14:43:09.894Z,10.07
2018-01-12T14:45:37.466Z,10.60
2018-01-12T14:48:05.058Z,10.85
2018-01-12T14:50:33.407Z,10.27
2018-01-12T14:53:01.122Z,12.88
2018-01-12T14:55:29.547Z,10.77
2018-01-12T14:57:57.162Z,11.30
2018-01-12T15:00:24.872Z,12.02
2018-01-12T15:02:52.542Z,11.40
2018-01-12T15:05:20.107Z,11.77
2018-01-12T15:07:47.735Z,11.80
2018-01-12T15:10:15.300Z,10.88
2018-01-12T15:12:42.955Z,12.05
2018-01-12T15:15:10.608Z,10.60
2018-01-12T15:17:38.171Z,11.15
2018-01-12T15:20:05.782Z,10.27
2018-01-12T15:22:34.118Z,10.40
2018-01-12T15:25:01.687Z,12.25
2018-01-12T15:27:29.298Z,10.93
2018-01-12T15:29:56.865Z,10.75
2018-01-12T15:32:24.485Z,10.00
2018-01-12T15:34:52.078Z,10.77
2018-01-12T15:37:19.642Z,10.27
2018-01-12T15:39:47.234Z,11.12
2018-01-12T15:42:14.868Z,11.60
2018-01-12T15:44:42.436Z,11.55
2018-01-12T15:47:10.044Z,13.55
2018-01-12T15:49:37.606Z,10.77
2018-01-12T15:52:05.944Z,10.20
2018-01-12T15:54:33.545Z,11.50
2018-01-12T15:57:01.889Z,11.90
2018-01-12T15:59:29.524Z,11.52
2018-01-12T16:01:57.243Z,12.17
2018-01-12T16:04:25.599Z,12.15
2018-01-12T16:06:53.194Z,13.18
2018-01-12T16:09:21.558Z,10.85
2018-01-12T16:11:49.894Z,13.50
2018-01-12T16:14:17.605Z,12.10
2018-01-12T16:16:46.061Z,13.50
2018-01-12T16:19:13.711Z,13.02
2018-01-12T16:21:41.317Z,10.80
2018-01-12T16:24:09.694Z,11.77
2018-01-12T16:26:37.273Z,11.20
2018-01-12T16:29:04.962Z,12.05
2018-01-12T16:31:32.544Z,10.32
2018-01-12T16:34:00.334Z,12.10
2018-01-12T16:36:27.898Z,9.85
2018-01-12T16:38:55.557Z,12.75
2018-01-12T16:41:23.151Z,11.57
2018-01-12T16:43:50.739Z,13.20
2018-01-12T16:46:18.344Z,12.13
2018-01-12T16:48:45.923Z,12.48
2018-01-12T16:51:13.499Z,11.03
2018-01-12T16:53:41.111Z,13.30
2018-01-12T16:56:08.726Z,13.10
2018-01-12T16:58:36.306Z,13.88
2018-01-12T17:01:04.714Z,14.35
2018-01-12T17:03:32.335Z,14.25
2018-01-12T17:05:59.919Z,12.00
2018-01-12T17:08:28.434Z,12.53
2018-01-12T17:10:56.071Z,14.60
2018-01-12T17:13:23.693Z,16.23
2018-01-12T17:15:52.103Z,13.77
2018-01-12T17:18:19.854Z,14.75
2018-01-12T17:20:48.198Z,12.70
2018-01-12T17:23:15.810Z,14.07
2018-01-12T17:25:43.422Z,14.98
2018-01-12T17:28:11.136Z,14.95
2018-01-12T17:30:38.735Z,13.70
2018-01-12T17:33:06.575Z,14.40
2018-01-12T17:35:34.271Z,16.00
2018-01-12T17:38:01.890Z,13.68
2018-01-12T17:40:29.506Z,17.58
2018-01-12T17:42:58.010Z,16.15
2018-01-12T17:45:25.663Z,14.75
2018-01-12T17:47:53.254Z,16.30
2018-01-12T17:50:20.863Z,15.35
2018-01-12T17:52:49.203Z,16.95
2018-01-12T17:55:16.793Z,15.23
2018-01-12T17:57:44.354Z,13.80
2018-01-12T18:00:12.750Z,13.75
2018-01-12T18:02:41.126Z,15.43
2018-01-12T18:05:09.598Z,15.40
2018-01-12T18:07:37.933Z,16.37
2018-01-12T18:10:05.551Z,16.42
2018-01-12T18:12:33.146Z,14.43
2018-01-12T18:15:00.720Z,15.02
2018-01-12T18:17:28.467Z,16.65
2018-01-12T18:19:56.032Z,14.70
2018-01-12T18:22:23.637Z,15.68
2018-01-12T18:24:52.074Z,14.93
2018-01-12T18:27:19.708Z,19.08
2018-01-12T18:29:47.388Z,17.70
2018-01-12T18:32:15.030Z,15.70
2018-01-12T18:34:42.743Z,13.50
2018-01-12T18:37:10.342Z,13.93
2018-01-12T18:39:37.930Z,14.85
2018-01-12T18:42:05.551Z,12.52
2018-01-12T18:44:33.146Z,11.85
2018-01-12T18:47:00.721Z,14.80
2018-01-12T18:49:28.339Z,13.68
2018-01-12T18:51:55.929Z,13.55
2018-01-12T18:54:23.538Z,13.20
2018-01-12T18:56:51.126Z,15.90
2018-01-12T18:59:18.743Z,14.90
2018-01-12T19:01:47.089Z,12.07
2018-01-12T19:04:14.739Z,15.25
2018-01-12T19:06:42.299Z,13.18
2018-01-12T19:09:09.870Z,14.70
2018-01-12T19:11:37.481Z,18.00
2018-01-12T19:14:05.089Z,15.48
2018-01-12T19:16:32.689Z,14.48
2018-01-12T19:19:00.305Z,14.30
2018-01-12T19:21:27.939Z,15.13
2018-01-12T19:23:55.539Z,15.27
2018-01-12T19:26:23.907Z,16.52
2018-01-12T19:28:51.502Z,15.50
2018-01-12T19:31:19.122Z,14.40
2018-01-12T19:33:46.708Z,16.90
2018-01-12T19:36:15.042Z,15.35
2018-01-12T19:38:42.651Z,15.68
2018-01-12T19:41:11.013Z,16.58
2018-01-12T19:43:38.739Z,16.73
2018-01-12T19:46:06.305Z,18.95
2018-01-12T19:48:33.952Z,18.90
2018-01-12T19:51:01.526Z,18.17
2018-01-12T19:53:29.242Z,16.67
2018-01-12T19:55:56.834Z,20.00
2018-01-12T19:58:24.427Z,20.23
2018-01-12T20:00:52.055Z,19.17
2018-01-12T20:03:19.651Z,17.62
2018-01-12T20:05:48.054Z,17.65
2018-01-12T20:08:15.693Z,13.75
2018-01-12T20:10:43.235Z,18.42
2018-01-12T20:13:12.476Z,17.42
2018-01-12T20:15:40.078Z,19.40
2018-01-12T20:18:07.719Z,17.17
2018-01-12T20:20:35.466Z,19.58
2018-01-12T20:23:03.038Z,17.15
2018-01-12T20:25:30.658Z,17.12
2018-01-12T20:27:59.033Z,15.75
2018-01-12T20:30:27.403Z,16.80
2018-01-12T20:32:55.767Z,19.12
2018-01-12T20:35:23.371Z,19.58
2018-01-12T20:37:51.083Z,17.10
2018-01-12T20:40:19.461Z,17.37
2018-01-12T20:42:47.146Z,18.48
2018-01-12T20:45:15.534Z,17.48
2018-01-12T20:47:43.870Z,19.37
2018-01-12T20:50:11.567Z,18.67
2018-01-12T20:52:39.942Z,17.95
2018-01-12T20:55:08.305Z,20.20
2018-01-12T20:57:35.909Z,18.65
2018-01-12T21:00:03.510Z,17.00
2018-01-12T21:02:31.147Z,18.15
2018-01-12T21:04:58.790Z,17.67
2018-01-12T21:07:26.574Z,16.92
2018-01-12T21:09:54.182Z,17.77
2018-01-12T21:12:21.806Z,16.83
2018-01-12T21:14:49.385Z,19.08
2018-01-12T21:17:17.740Z,20.20
2018-01-12T21:19:45.351Z,17.70
2018-01-12T21:22:12.945Z,17.10
2018-01-12T21:24:40.590Z,18.98
2018-01-12T21:27:08.166Z,18.57
2018-01-12T21:29:35.754Z,20.77
2018-01-12T21:32:03.356Z,17.23
2018-01-12T21:34:30.962Z,18.40
2018-01-12T21:36:59.342Z,17.58
2018-01-12T21:39:26.915Z,20.27
2018-01-12T21:41:55.282Z,18.40
2018-01-12T21:44:22.942Z,19.08
2018-01-12T21:46:50.522Z,19.87
2018-01-12T21:49:18.918Z,20.15
2018-01-12T21:51:46.527Z,21.00
2018-01-12T21:54:14.222Z,21.35
2018-01-12T21:56:42.567Z,20.08
2018-01-12T21:59:10.150Z,20.27
2018-01-12T22:01:38.719Z,19.40
2018-01-12T22:04:07.054Z,20.77
2018-01-12T22:06:34.809Z,19.00
2018-01-12T22:09:02.399Z,19.75
2018-01-12T22:11:29.974Z,19.48
2018-01-12T22:13:58.330Z,18.80
2018-01-12T22:16:25.909Z,18.12
2018-01-12T22:18:53.520Z,18.83
2018-01-12T22:21:21.109Z,21.70
2018-01-12T22:23:48.812Z,22.42
2018-01-12T22:26:17.187Z,19.77
2018-01-12T22:28:45.687Z,19.27
2018-01-12T22:31:13.298Z,18.87
2018-01-12T22:33:40.866Z,17.05
2018-01-12T22:36:08.468Z,20.47
2018-01-12T22:38:36.091Z,20.50
2018-01-12T22:41:04.516Z,23.08
2018-01-12T22:43:32.116Z,20.12
2018-01-12T22:45:59.755Z,21.00
2018-01-12T22:48:27.345Z,21.17
2018-01-12T22:50:54.912Z,19.13
2018-01-12T22:53:23.298Z,18.77
2018-01-12T22:55:51.646Z,19.87
2018-01-12T22:58:19.441Z,18.75
2018-01-12T23:00:47.890Z,18.97
2018-01-12T23:03:15.522Z,18.35
2018-01-12T23:05:43.154Z,20.85
2018-01-12T23:08:10.826Z,18.57
2018-01-12T23:10:38.417Z,21.50
2018-01-12T23:13:06.018Z,19.52
2018-01-12T23:15:33.634Z,19.77
2018-01-12T23:18:01.229Z,19.67
2018-01-12T23:20:29.599Z,19.30
2018-01-12T23:22:57.940Z,20.50
2018-01-12T23:25:25.554Z,17.33
2018-01-12T23:27:53.131Z,17.95
2018-01-12T23:30:20.738Z,18.35
2018-01-12T23:32:48.359Z,19.52
2018-01-12T23:35:15.927Z,16.92
2018-01-12T23:37:43.538Z,17.10
2018-01-12T23:40:11.874Z,17.17
2018-01-12T23:42:39.634Z,19.42
2018-01-12T23:45:08.978Z,16.12
2018-01-12T23:47:37.313Z,18.20
2018-01-12T23:50:04.991Z,17.95
2018-01-12T23:52:32.585Z,19.65
2018-01-12T23:55:00.222Z,17.98
2018-01-12T23:57:28.549Z,17.77
2018-01-12T23:59:56.161Z,18.90
